Time;durP1;ratioP1;P1;durP2;ratioP2;P2;SDS_P1;SDS_P2;PMS_P1;PMS_P2;Temp;Humidity;BMP_temperature;BMP_pressure;BME280_temperature;BME280_humidity;BME280_pressure;Samples;Min_cycle;Max_cycle;Signal;HPM_P1;HPM_P2
2022/06/03 00:00:03;;;;;;;1.20;0.70;;;;;;;;;;521371;28;1749;-82
2022/06/03 00:00:22;;;;;;;1.48;0.70;;;;;;;;;;519972;28;961;-82
2022/06/03 00:01:02;;;;;;;0.95;0.77;;;;;;;;;;516856;28;1618;-83
2022/06/03 00:01:51;;;;;;;1.55;0.70;;;;;;;;;;515547;28;866;-82
2022/06/03 00:02:20;;;;;;;0.70;0.70;;;;;;;;;;517212;28;1039;-81
2022/06/03 00:02:36;;;;;;;0.65;0.60;;;;;;;;;;518377;28;1784;-81
2022/06/03 00:03:33;;;;;;;0.73;0.68;;;;;;;;;;521035;28;1461;-82
2022/06/03 00:03:57;;;;;;;1.13;0.70;;;;;;;;;;519688;28;944;-82
2022/06/03 00:04:38;;;;;;;1.25;0.70;;;;;;;;;;520195;28;1474;-82
2022/06/03 00:05:12;;;;;;;1.67;0.80;;;;;;;;;;519470;28;1311;-82
2022/06/03 00:06:05;;;;;;;1.50;0.77;;;;;;;;;;519580;28;869;-82
2022/06/03 00:06:20;;;;;;;1.60;0.80;;;;;;;;;;519692;28;933;-82
2022/06/03 00:06:38;;;;;;;2.40;0.80;;;;;;;;;;519671;28;1208;-82
2022/06/03 00:07:13;;;;;;;2.53;0.80;;;;;;;;;;519761;28;830;-82
2022/06/03 00:07:37;;;;;;;1.40;0.80;;;;;;;;;;519872;28;867;-82
2022/06/03 00:08:03;;;;;;;1.38;0.80;;;;;;;;;;520030;28;1110;-82
2022/06/03 00:08:36;;;;;;;0.88;0.82;;;;;;;;;;520014;28;1192;-82
2022/06/03 00:09:07;;;;;;;1.85;1.05;;;;;;;;;;520541;28;1537;-82
2022/06/03 00:09:47;;;;;;;1.00;0.90;;;;;;;;;;522230;28;944;-82
2022/06/03 00:10:12;;;;;;;1.10;1.00;;;;;;;;;;522167;28;1683;-82
2022/06/03 00:10:46;;;;;;;2.58;1.10;;;;;;;;;;522355;28;841;-82
2022/06/03 00:11:05;;;;;;;1.90;1.10;;;;;;;;;;520788;28;965;-83
2022/06/03 00:11:20;;;;;;;2.00;1.00;;;;;;;;;;522006;28;1528;-82
2022/06/03 00:12:14;;;;;;;1.50;1.00;;;;;;;;;;522343;28;1109;-82
2022/06/03 00:12:57;;;;;;;1.77;1.00;;;;;;;;;;522180;28;1321;-82
2022/06/03 00:13:28;;;;;;;1.00;0.90;;;;;;;;;;520074;28;1545;-82
2022/06/03 00:14:05;;;;;;;2.70;1.20;;;;;;;;;;520132;28;1474;-82
2022/06/03 00:14:47;;;;;;;1.80;1.10;;;;;;;;;;520542;28;1427;-82
2022/06/03 00:15:17;;;;;;;1.70;1.10;;;;;;;;;;520016;28;1000;-82
2022/06/03 00:15:38;;;;;;;1.48;1.10;;;;;;;;;;521095;28;1352;-82
2022/06/03 00:16:12;;;;;;;1.73;1.02;;;;;;;;;;523993;28;929;-82
2022/06/03 00:16:39;;;;;;;1.90;1.10;;;;;;;;;;521809;28;1040;-82
2022/06/03 00:17:24;;;;;;;1.05;0.95;;;;;;;;;;519926;28;1342;-82
2022/06/03 00:17:47;;;;;;;1.13;1.02;;;;;;;;;;518334;28;1354;-82
2022/06/03 00:18:48;;;;;;;1.30;1.20;;;;;;;;;;519868;28;1318;-82
2022/06/03 00:19:41;;;;;;;1.25;1.02;;;;;;;;;;509554;28;1257;-82
2022/06/03 00:20:29;;;;;;;1.10;1.00;;;;;;;;;;513693;28;1212;-83
2022/06/03 00:20:56;;;;;;;1.00;0.90;;;;;;;;;;519997;28;945;-82
2022/06/03 00:21:26;;;;;;;1.10;1.00;;;;;;;;;;519852;28;1496;-83
2022/06/03 00:22:12;;;;;;;2.20;1.05;;;;;;;;;;517837;28;878;-82
2022/06/03 00:23:10;;;;;;;1.50;1.10;;;;;;;;;;517899;28;945;-82
2022/06/03 00:23:51;;;;;;;1.15;0.93;;;;;;;;;;515921;28;1374;-82
2022/06/03 00:24:18;;;;;;;1.35;1.00;;;;;;;;;;517935;28;929;-82
2022/06/03 00:24:36;;;;;;;2.08;1.00;;;;;;;;;;519904;28;1249;-82
2022/06/03 00:25:04;;;;;;;1.13;1.00;;;;;;;;;;517877;28;1414;-82
2022/06/03 00:25:31;;;;;;;1.20;1.10;;;;;;;;;;519885;28;1060;-82
2022/06/03 00:26:25;;;;;;;1.83;1.02;;;;;;;;;;518165;28;1378;-82
2022/06/03 00:27:04;;;;;;;2.10;1.20;;;;;;;;;;518009;28;1258;-82
2022/06/03 00:27:23;;;;;;;2.03;1.15;;;;;;;;;;517836;28;1220;-82
2022/06/03 00:27:47;;;;;;;1.65;1.10;;;;;;;;;;518521;28;1290;-82
2022/06/03 00:28:13;;;;;;;1.70;1.10;;;;;;;;;;520034;28;893;-82
2022/06/03 00:28:45;;;;;;;1.83;1.10;;;;;;;;;;521080;28;1573;-82
2022/06/03 00:29:13;;;;;;;1.67;1.00;;;;;;;;;;519797;28;1525;-82
2022/06/03 00:29:40;;;;;;;2.13;1.08;;;;;;;;;;520181;28;941;-82
2022/06/03 00:30:08;;;;;;;2.03;1.20;;;;;;;;;;520940;28;1585;-82
2022/06/03 00:30:33;;;;;;;1.92;1.10;;;;;;;;;;520097;28;1633;-82
2022/06/03 00:31:08;;;;;;;2.40;1.20;;;;;;;;;;520354;28;960;-82
2022/06/03 00:32:07;;;;;;;2.53;1.20;;;;;;;;;;520120;28;945;-82
2022/06/03 00:32:29;;;;;;;1.73;1.33;;;;;;;;;;517789;28;1415;-82
2022/06/03 00:32:44;;;;;;;3.10;1.40;;;;;;;;;;517588;28;1781;-82
2022/06/03 00:33:19;;;;;;;2.90;1.23;;;;;;;;;;517827;28;897;-82
2022/06/03 00:34:04;;;;;;;2.45;1.40;;;;;;;;;;516547;28;945;-82
2022/06/03 00:34:31;;;;;;;1.75;1.30;;;;;;;;;;516810;28;1363;-82
2022/06/03 00:34:51;;;;;;;2.00;1.40;;;;;;;;;;515437;28;1254;-82
2022/06/03 00:35:28;;;;;;;1.40;1.30;;;;;;;;;;518547;28;1196;-82
2022/06/03 00:36:05;;;;;;;1.40;1.30;;;;;;;;;;522108;28;2124;-83
2022/06/03 00:36:38;;;;;;;2.03;1.40;;;;;;;;;;520213;28;1524;-82
2022/06/03 00:37:28;;;;;;;2.53;1.38;;;;;;;;;;521850;28;1351;-82
2022/06/03 00:37:52;;;;;;;1.95;1.35;;;;;;;;;;521528;28;1474;-82
2022/06/03 00:38:22;;;;;;;2.70;1.30;;;;;;;;;;520807;28;1584;-83
2022/06/03 00:39:02;;;;;;;1.92;1.35;;;;;;;;;;520230;28;929;-82
2022/06/03 00:39:29;;;;;;;2.38;1.50;;;;;;;;;;522242;28;1330;-82
2022/06/03 00:40:06;;;;;;;2.03;1.30;;;;;;;;;;521464;28;1627;-83
2022/06/03 00:40:52;;;;;;;2.30;1.35;;;;;;;;;;516010;28;1081;-82
2022/06/03 00:41:46;;;;;;;1.73;1.40;;;;;;;;;;518381;28;1028;-82
2022/06/03 00:42:15;;;;;;;2.47;1.35;;;;;;;;;;521289;28;1525;-82
2022/06/03 00:42:53;;;;;;;1.63;1.38;;;;;;;;;;520166;28;999;-83
2022/06/03 00:43:42;;;;;;;1.65;1.40;;;;;;;;;;520181;28;933;-82
2022/06/03 00:44:35;;;;;;;2.75;1.30;;;;;;;;;;517979;28;928;-82
2022/06/03 00:44:53;;;;;;;2.08;1.45;;;;;;;;;;517937;28;1025;-83
2022/06/03 00:45:26;;;;;;;1.85;1.48;;;;;;;;;;517986;28;1420;-83
2022/06/03 00:45:48;;;;;;;1.80;1.50;;;;;;;;;;518119;28;1072;-82
2022/06/03 00:46:21;;;;;;;1.90;1.50;;;;;;;;;;517216;28;1407;-82
2022/06/03 00:46:53;;;;;;;1.67;1.40;;;;;;;;;;516371;28;906;-83
2022/06/03 00:47:24;;;;;;;2.08;1.38;;;;;;;;;;521811;28;1072;-82
2022/06/03 00:47:45;;;;;;;1.70;1.40;;;;;;;;;;522075;28;826;-82
2022/06/03 00:48:07;;;;;;;2.20;1.45;;;;;;;;;;522193;28;1313;-82
2022/06/03 00:48:22;;;;;;;2.28;1.60;;;;;;;;;;522132;28;1300;-82
2022/06/03 00:48:47;;;;;;;1.55;1.40;;;;;;;;;;522331;28;1205;-83
2022/06/03 00:49:24;;;;;;;1.55;1.40;;;;;;;;;;519371;28;1321;-83
2022/06/03 00:49:58;;;;;;;2.65;1.60;;;;;;;;;;519906;28;1243;-82
2022/06/03 00:50:29;;;;;;;3.83;1.63;;;;;;;;;;518518;28;893;-82
2022/06/03 00:51:23;;;;;;;2.10;1.55;;;;;;;;;;517845;28;1420;-82
2022/06/03 00:52:08;;;;;;;2.60;1.50;;;;;;;;;;510051;29;1122;-82
2022/06/03 00:52:36;;;;;;;2.40;1.58;;;;;;;;;;517828;28;1279;-82
2022/06/03 00:53:21;;;;;;;2.58;1.50;;;;;;;;;;519736;28;877;-82
2022/06/03 00:53:49;;;;;;;2.25;1.50;;;;;;;;;;519395;28;1532;-82
2022/06/03 00:54:13;;;;;;;1.90;1.52;;;;;;;;;;517714;28;1455;-82
2022/06/03 00:54:34;;;;;;;2.50;1.58;;;;;;;;;;518955;28;1379;-82
2022/06/03 00:55:09;;;;;;;2.05;1.50;;;;;;;;;;518023;28;1235;-82
2022/06/03 00:55:43;;;;;;;1.67;1.52;;;;;;;;;;517929;28;921;-82
2022/06/03 00:56:17;;;;;;;1.65;1.55;;;;;;;;;;520061;28;1555;-82
2022/06/03 00:56:54;;;;;;;1.60;1.50;;;;;;;;;;520126;28;1524;-82
2022/06/03 00:57:41;;;;;;;1.95;1.40;;;;;;;;;;519824;28;1910;-82
2022/06/03 00:58:26;;;;;;;1.58;1.35;;;;;;;;;;517823;28;854;-82
2022/06/03 00:59:09;;;;;;;1.50;1.40;;;;;;;;;;517794;28;1374;-82
2022/06/03 00:59:40;;;;;;;2.38;1.65;;;;;;;;;;517743;28;1348;-82
2022/06/03 01:00:22;;;;;;;2.08;1.40;;;;;;;;;;517685;28;1207;-82
2022/06/03 01:01:02;;;;;;;2.53;1.45;;;;;;;;;;516907;28;1474;-82
2022/06/03 01:01:24;;;;;;;2.65;1.48;;;;;;;;;;519666;28;1620;-82
2022/06/03 01:02:00;;;;;;;2.15;1.50;;;;;;;;;;518541;28;1479;-82
2022/06/03 01:02:28;;;;;;;2.17;1.40;;;;;;;;;;518114;28;1254;-82
2022/06/03 01:02:43;;;;;;;2.40;1.40;;;;;;;;;;519679;28;1683;-82
2022/06/03 01:03:20;;;;;;;3.17;1.50;;;;;;;;;;519991;28;1477;-82
2022/06/03 01:04:01;;;;;;;2.20;1.33;;;;;;;;;;520123;28;1336;-82
2022/06/03 01:04:26;;;;;;;1.90;1.50;;;;;;;;;;517999;28;1044;-82
2022/06/03 01:04:51;;;;;;;1.85;1.50;;;;;;;;;;517881;28;1253;-82
2022/06/03 01:05:09;;;;;;;3.03;1.40;;;;;;;;;;518052;28;1172;-83
2022/06/03 01:05:40;;;;;;;3.13;1.40;;;;;;;;;;517914;28;1271;-82
2022/06/03 01:06:07;;;;;;;2.25;1.40;;;;;;;;;;517882;28;918;-83
2022/06/03 01:06:34;;;;;;;1.75;1.30;;;;;;;;;;517949;28;870;-82
2022/06/03 01:07:06;;;;;;;1.73;1.38;;;;;;;;;;517862;28;1355;-82
2022/06/03 01:07:34;;;;;;;3.15;1.48;;;;;;;;;;517807;28;913;-82
2022/06/03 01:08:11;;;;;;;1.95;1.48;;;;;;;;;;519887;28;1096;-82
2022/06/03 01:08:32;;;;;;;2.33;1.35;;;;;;;;;;519864;28;1726;-82
2022/06/03 01:09:15;;;;;;;1.70;1.50;;;;;;;;;;519334;28;1439;-82
2022/06/03 01:09:52;;;;;;;2.47;1.40;;;;;;;;;;522221;28;960;-82
2022/06/03 01:10:33;;;;;;;1.90;1.50;;;;;;;;;;519894;28;1356;-83
2022/06/03 01:11:16;;;;;;;2.22;1.60;;;;;;;;;;515264;28;1267;-82
2022/06/03 01:12:05;;;;;;;1.95;1.42;;;;;;;;;;519679;28;1755;-82
2022/06/03 01:12:32;;;;;;;2.03;1.45;;;;;;;;;;520514;28;1415;-82
2022/06/03 01:13:12;;;;;;;1.98;1.50;;;;;;;;;;520367;28;1297;-82
2022/06/03 01:13:32;;;;;;;3.22;1.70;;;;;;;;;;520915;28;917;-82
2022/06/03 01:13:50;;;;;;;2.00;1.60;;;;;;;;;;520609;28;1711;-82
2022/06/03 01:14:30;;;;;;;2.30;1.50;;;;;;;;;;518911;28;1326;-82
2022/06/03 01:15:14;;;;;;;2.60;1.58;;;;;;;;;;520808;28;1346;-82
2022/06/03 01:15:34;;;;;;;2.55;1.70;;;;;;;;;;519160;28;1390;-82
2022/06/03 01:16:06;;;;;;;1.60;1.50;;;;;;;;;;518270;28;1057;-82
2022/06/03 01:16:43;;;;;;;2.38;1.70;;;;;;;;;;519081;28;1076;-82
2022/06/03 01:17:10;;;;;;;2.70;1.55;;;;;;;;;;522897;28;846;-82
2022/06/03 01:17:39;;;;;;;2.97;1.90;;;;;;;;;;521897;28;873;-82
2022/06/03 01:18:13;;;;;;;1.90;1.65;;;;;;;;;;521267;28;1510;-82
2022/06/03 01:18:34;;;;;;;1.80;1.60;;;;;;;;;;521866;28;1335;-82
2022/06/03 01:19:11;;;;;;;1.77;1.55;;;;;;;;;;522752;28;1738;-82
2022/06/03 01:19:50;;;;;;;2.25;1.40;;;;;;;;;;521527;28;1548;-82
2022/06/03 01:20:38;;;;;;;1.92;1.50;;;;;;;;;;522621;28;1369;-82
2022/06/03 01:21:04;;;;;;;2.40;1.50;;;;;;;;;;512265;29;1181;-81
2022/06/03 01:21:31;;;;;;;1.85;1.67;;;;;;;;;;511124;29;1332;-82
2022/06/03 01:22:29;;;;;;;2.22;1.48;;;;;;;;;;515567;28;1585;-82
2022/06/03 01:22:59;;;;;;;2.05;1.58;;;;;;;;;;515700;28;1532;-82
2022/06/03 01:23:44;;;;;;;2.35;1.67;;;;;;;;;;517840;28;1562;-82
2022/06/03 01:24:30;;;;;;;2.60;1.50;;;;;;;;;;512390;29;1275;-82
2022/06/03 01:24:52;;;;;;;2.40;1.45;;;;;;;;;;512648;28;1618;-82
2022/06/03 01:25:51;;;;;;;1.80;1.58;;;;;;;;;;516415;28;1053;-82
2022/06/03 01:26:50;;;;;;;2.70;1.60;;;;;;;;;;511802;29;1592;-82
2022/06/03 01:27:38;;;;;;;2.00;1.40;;;;;;;;;;508446;29;1168;-82
2022/06/03 01:28:20;;;;;;;2.55;1.52;;;;;;;;;;512670;29;862;-82
2022/06/03 01:28:53;;;;;;;2.38;1.50;;;;;;;;;;514123;28;1409;-82
2022/06/03 01:29:34;;;;;;;2.00;1.58;;;;;;;;;;520600;28;976;-82
2022/06/03 01:29:55;;;;;;;3.80;1.40;;;;;;;;;;518353;28;1220;-82
2022/06/03 01:30:19;;;;;;;2.60;1.40;;;;;;;;;;519044;28;1522;-82
2022/06/03 01:30:50;;;;;;;3.13;1.50;;;;;;;;;;520151;28;1279;-82
2022/06/03 01:31:43;;;;;;;2.63;1.55;;;;;;;;;;520518;28;941;-82
2022/06/03 01:32:35;;;;;;;2.33;1.55;;;;;;;;;;518571;28;957;-83
2022/06/03 01:33:26;;;;;;;1.88;1.52;;;;;;;;;;518302;28;1454;-82
2022/06/03 01:34:14;;;;;;;1.70;1.60;;;;;;;;;;518675;28;933;-83
2022/06/03 01:34:33;;;;;;;3.22;1.50;;;;;;;;;;518465;28;1431;-82
2022/06/03 01:35:17;;;;;;;2.88;1.55;;;;;;;;;;518440;28;1294;-82
2022/06/03 01:36:06;;;;;;;2.00;1.60;;;;;;;;;;520073;28;1601;-83
2022/06/03 01:36:49;;;;;;;1.73;1.50;;;;;;;;;;517447;28;1447;-82
2022/06/03 01:37:23;;;;;;;2.28;1.60;;;;;;;;;;522467;28;1905;-83
2022/06/03 01:38:01;;;;;;;2.40;1.60;;;;;;;;;;521495;28;1620;-82
2022/06/03 01:38:28;;;;;;;1.67;1.40;;;;;;;;;;522393;28;1492;-83
2022/06/03 01:38:53;;;;;;;1.77;1.45;;;;;;;;;;521340;28;1575;-82
2022/06/03 01:39:29;;;;;;;2.20;1.45;;;;;;;;;;520539;28;996;-83
2022/06/03 01:40:15;;;;;;;2.13;1.50;;;;;;;;;;520358;28;949;-83
2022/06/03 01:40:33;;;;;;;2.22;1.70;;;;;;;;;;516940;28;1562;-83
2022/06/03 01:40:57;;;;;;;2.20;1.50;;;;;;;;;;520262;28;1219;-83
2022/06/03 01:41:48;;;;;;;2.55;1.55;;;;;;;;;;520121;28;1536;-82
2022/06/03 01:42:45;;;;;;;2.15;1.60;;;;;;;;;;518114;28;1525;-83
2022/06/03 01:43:23;;;;;;;1.88;1.60;;;;;;;;;;518431;28;1470;-82
2022/06/03 01:44:21;;;;;;;2.03;1.60;;;;;;;;;;518257;28;1365;-82
2022/06/03 01:44:57;;;;;;;2.58;1.70;;;;;;;;;;516236;28;1248;-83
2022/06/03 01:45:31;;;;;;;2.10;1.50;;;;;;;;;;518289;28;1075;-83
2022/06/03 01:46:05;;;;;;;3.10;1.70;;;;;;;;;;518201;28;944;-83
2022/06/03 01:46:28;;;;;;;1.90;1.60;;;;;;;;;;518387;28;921;-83
2022/06/03 01:47:34;;;;;;;1.90;1.60;;;;;;;;;;518323;28;1279;-82
2022/06/03 01:47:59;;;;;;;2.08;1.70;;;;;;;;;;516203;28;1312;-83
2022/06/03 01:48:30;;;;;;;2.25;1.50;;;;;;;;;;518407;28;1557;-83
2022/06/03 01:48:57;;;;;;;2.45;1.50;;;;;;;;;;521338;28;1434;-83
2022/06/03 01:49:32;;;;;;;2.25;1.60;;;;;;;;;;522068;28;1103;-82
2022/06/03 01:50:27;;;;;;;2.28;1.52;;;;;;;;;;521261;28;1576;-83
2022/06/03 01:50:57;;;;;;;2.10;1.70;;;;;;;;;;512004;29;1281;-83
2022/06/03 01:51:28;;;;;;;1.70;1.55;;;;;;;;;;518253;28;1032;-82
2022/06/03 01:52:22;;;;;;;2.75;1.80;;;;;;;;;;518064;28;968;-83
2022/06/03 01:52:51;;;;;;;2.00;1.70;;;;;;;;;;519061;28;1213;-83
2022/06/03 01:53:09;;;;;;;2.60;1.45;;;;;;;;;;521254;28;1034;-82
2022/06/03 01:53:59;;;;;;;1.52;1.42;;;;;;;;;;522462;28;960;-83
2022/06/03 01:54:29;;;;;;;2.63;1.50;;;;;;;;;;522106;28;961;-82
2022/06/03 01:55:16;;;;;;;2.50;1.60;;;;;;;;;;520387;28;956;-83
2022/06/03 01:55:43;;;;;;;1.92;1.50;;;;;;;;;;519929;28;1302;-83
2022/06/03 01:56:23;;;;;;;2.00;1.40;;;;;;;;;;521038;28;1792;-82
2022/06/03 01:56:52;;;;;;;2.35;1.60;;;;;;;;;;521511;28;1490;-83
2022/06/03 01:57:16;;;;;;;2.90;1.42;;;;;;;;;;522126;28;1914;-83
2022/06/03 01:57:50;;;;;;;2.50;1.53;;;;;;;;;;520306;28;902;-83
2022/06/03 01:58:26;;;;;;;2.05;1.50;;;;;;;;;;520247;28;1513;-82
2022/06/03 01:58:50;;;;;;;1.60;1.50;;;;;;;;;;522074;28;877;-82
2022/06/03 01:59:32;;;;;;;1.73;1.50;;;;;;;;;;520447;28;1410;-82
2022/06/03 01:59:50;;;;;;;2.40;1.48;;;;;;;;;;511981;29;1033;-82
2022/06/03 02:00:30;;;;;;;2.95;1.60;;;;;;;;;;511917;29;843;-82
2022/06/03 02:00:55;;;;;;;1.90;1.50;;;;;;;;;;520141;28;1044;-82
2022/06/03 02:01:34;;;;;;;1.90;1.40;;;;;;;;;;520298;28;965;-83
2022/06/03 02:02:11;;;;;;;2.45;1.50;;;;;;;;;;520319;28;949;-83
2022/06/03 02:02:53;;;;;;;1.95;1.40;;;;;;;;;;520339;28;1401;-83
2022/06/03 02:03:20;;;;;;;1.65;1.48;;;;;;;;;;521628;28;1623;-83
2022/06/03 02:03:39;;;;;;;1.85;1.50;;;;;;;;;;520173;28;908;-83
2022/06/03 02:04:16;;;;;;;2.65;1.52;;;;;;;;;;520297;28;1572;-83
2022/06/03 02:04:37;;;;;;;1.60;1.50;;;;;;;;;;519972;28;1573;-83
2022/06/03 02:05:07;;;;;;;1.88;1.50;;;;;;;;;;520296;28;925;-83
2022/06/03 02:05:34;;;;;;;2.05;1.48;;;;;;;;;;522250;28;1631;-83
2022/06/03 02:06:18;;;;;;;1.98;1.50;;;;;;;;;;521628;28;1592;-83
2022/06/03 02:07:01;;;;;;;2.03;1.42;;;;;;;;;;519868;28;1334;-83
2022/06/03 02:08:01;;;;;;;3.00;1.40;;;;;;;;;;520282;28;910;-83
2022/06/03 02:08:41;;;;;;;2.50;1.50;;;;;;;;;;513847;28;1180;-82
2022/06/03 02:09:16;;;;;;;2.75;1.50;;;;;;;;;;514740;28;1334;-83
2022/06/03 02:09:56;;;;;;;2.47;1.50;;;;;;;;;;519472;28;1441;-83
2022/06/03 02:10:39;;;;;;;2.78;1.50;;;;;;;;;;516935;28;1419;-83
2022/06/03 02:10:55;;;;;;;1.85;1.50;;;;;;;;;;519538;28;1565;-83
2022/06/03 02:11:22;;;;;;;1.95;1.40;;;;;;;;;;518148;28;1248;-83
2022/06/03 02:11:50;;;;;;;1.90;1.50;;;;;;;;;;517911;28;1028;-82
2022/06/03 02:12:32;;;;;;;2.30;1.35;;;;;;;;;;518916;28;969;-83
2022/06/03 02:13:15;;;;;;;2.45;1.60;;;;;;;;;;519699;28;1601;-82
2022/06/03 02:14:02;;;;;;;2.67;1.50;;;;;;;;;;521916;28;1532;-83
2022/06/03 02:14:45;;;;;;;1.65;1.50;;;;;;;;;;521972;28;1368;-83
2022/06/03 02:15:27;;;;;;;1.95;1.50;;;;;;;;;;522417;28;873;-82
2022/06/03 02:15:54;;;;;;;2.33;1.40;;;;;;;;;;522232;28;1512;-82
2022/06/03 02:16:10;;;;;;;2.40;1.50;;;;;;;;;;520382;28;889;-83
2022/06/03 02:16:40;;;;;;;2.50;1.60;;;;;;;;;;518485;28;1245;-83
2022/06/03 02:17:07;;;;;;;1.60;1.50;;;;;;;;;;518298;28;1661;-83
2022/06/03 02:17:53;;;;;;;2.47;1.45;;;;;;;;;;517957;28;1308;-83
2022/06/03 02:18:57;;;;;;;1.65;1.48;;;;;;;;;;519035;28;1000;-83
2022/06/03 02:19:19;;;;;;;2.22;1.45;;;;;;;;;;509812;29;1431;-83
2022/06/03 02:19:47;;;;;;;1.73;1.42;;;;;;;;;;511980;29;1261;-83
2022/06/03 02:20:31;;;;;;;1.95;1.42;;;;;;;;;;514078;28;870;-83
2022/06/03 02:21:19;;;;;;;3.10;1.73;;;;;;;;;;511685;29;1509;-82
2022/06/03 02:21:37;;;;;;;1.80;1.60;;;;;;;;;;509103;29;1269;-83
2022/06/03 02:22:11;;;;;;;2.08;1.50;;;;;;;;;;509985;29;1315;-83
2022/06/03 02:22:56;;;;;;;2.03;1.50;;;;;;;;;;507957;29;911;-83
2022/06/03 02:23:30;;;;;;;1.98;1.60;;;;;;;;;;509996;29;938;-82
2022/06/03 02:24:15;;;;;;;1.67;1.40;;;;;;;;;;511993;28;1603;-83
2022/06/03 02:24:43;;;;;;;1.92;1.50;;;;;;;;;;514727;28;1765;-83
2022/06/03 02:25:32;;;;;;;2.72;1.58;;;;;;;;;;509925;29;1632;-82
2022/06/03 02:25:56;;;;;;;1.60;1.40;;;;;;;;;;520293;28;972;-82
2022/06/03 02:26:30;;;;;;;1.85;1.60;;;;;;;;;;520154;28;1115;-82
2022/06/03 02:27:01;;;;;;;1.73;1.40;;;;;;;;;;518411;28;1021;-82
2022/06/03 02:27:18;;;;;;;2.45;1.65;;;;;;;;;;520262;28;1544;-82
2022/06/03 02:28:03;;;;;;;2.30;1.60;;;;;;;;;;519940;28;1476;-82
2022/06/03 02:28:44;;;;;;;1.93;1.53;;;;;;;;;;517771;28;874;-82
2022/06/03 02:30:27;;;;;;;2.22;1.70;;;;;;;;;;518269;28;750;-83
2022/06/03 02:30:42;;;;;;;2.42;1.60;;;;;;;;;;520671;28;1466;-82
2022/06/03 02:31:07;;;;;;;1.63;1.53;;;;;;;;;;521403;28;1753;-83
2022/06/03 02:31:40;;;;;;;1.73;1.60;;;;;;;;;;522028;28;1642;-82
2022/06/03 02:32:15;;;;;;;1.70;1.40;;;;;;;;;;522076;28;1447;-82
2022/06/03 02:32:49;;;;;;;1.90;1.50;;;;;;;;;;522106;28;1039;-82
2022/06/03 02:33:17;;;;;;;2.03;1.60;;;;;;;;;;522412;28;961;-82
2022/06/03 02:33:41;;;;;;;2.35;1.52;;;;;;;;;;522235;28;1545;-82
2022/06/03 02:34:29;;;;;;;1.88;1.58;;;;;;;;;;521871;28;1474;-82
2022/06/03 02:35:13;;;;;;;1.67;1.50;;;;;;;;;;518280;28;894;-83
2022/06/03 02:35:35;;;;;;;1.98;1.60;;;;;;;;;;513815;28;1536;-82
2022/06/03 02:36:11;;;;;;;2.10;1.50;;;;;;;;;;517250;28;1829;-83
2022/06/03 02:36:56;;;;;;;2.35;1.50;;;;;;;;;;518157;28;1517;-82
2022/06/03 02:37:14;;;;;;;2.05;1.50;;;;;;;;;;517085;28;1906;-83
2022/06/03 02:37:52;;;;;;;1.95;1.40;;;;;;;;;;517843;28;1355;-82
2022/06/03 02:38:22;;;;;;;1.77;1.50;;;;;;;;;;520216;28;1625;-83
2022/06/03 02:38:56;;;;;;;2.35;1.60;;;;;;;;;;519877;28;1498;-82
2022/06/03 02:39:32;;;;;;;2.10;1.63;;;;;;;;;;522352;28;874;-82
2022/06/03 02:40:12;;;;;;;1.95;1.40;;;;;;;;;;520147;28;957;-82
2022/06/03 02:40:41;;;;;;;1.50;1.40;;;;;;;;;;518481;28;1323;-82
2022/06/03 02:41:05;;;;;;;2.22;1.52;;;;;;;;;;520247;28;835;-82
2022/06/03 02:41:44;;;;;;;2.00;1.60;;;;;;;;;;520317;28;1036;-82
2022/06/03 02:42:11;;;;;;;3.05;1.60;;;;;;;;;;519019;28;1079;-82
2022/06/03 02:42:47;;;;;;;1.90;1.50;;;;;;;;;;520536;28;1110;-83
2022/06/03 02:43:20;;;;;;;1.80;1.48;;;;;;;;;;520473;28;877;-82
2022/06/03 02:43:44;;;;;;;2.60;1.48;;;;;;;;;;519337;28;1334;-82
2022/06/03 02:44:20;;;;;;;2.17;1.60;;;;;;;;;;518227;28;1032;-83
2022/06/03 02:45:10;;;;;;;1.92;1.40;;;;;;;;;;519782;28;1590;-82
2022/06/03 02:45:50;;;;;;;1.98;1.50;;;;;;;;;;521581;28;1313;-82
2022/06/03 02:46:49;;;;;;;1.70;1.50;;;;;;;;;;524186;28;1488;-83
2022/06/03 02:47:25;;;;;;;1.60;1.50;;;;;;;;;;517106;28;1356;-83
2022/06/03 02:48:02;;;;;;;1.80;1.50;;;;;;;;;;526275;28;1083;-82
2022/06/03 02:48:40;;;;;;;1.73;1.50;;;;;;;;;;524071;28;1546;-83
2022/06/03 02:49:34;;;;;;;1.92;1.40;;;;;;;;;;524288;28;1532;-82
2022/06/03 02:50:14;;;;;;;2.80;1.60;;;;;;;;;;523621;28;1690;-82
2022/06/03 02:50:30;;;;;;;2.50;1.60;;;;;;;;;;526186;28;1701;-82
2022/06/03 02:51:10;;;;;;;2.23;1.47;;;;;;;;;;526438;28;782;-82
2022/06/03 02:51:59;;;;;;;1.60;1.42;;;;;;;;;;524543;28;1037;-82
2022/06/03 02:52:23;;;;;;;2.20;1.60;;;;;;;;;;524322;28;1511;-83
2022/06/03 02:53:10;;;;;;;1.88;1.60;;;;;;;;;;524156;28;1657;-82
2022/06/03 02:53:43;;;;;;;1.90;1.63;;;;;;;;;;522670;28;1495;-82
2022/06/03 02:54:11;;;;;;;2.70;1.52;;;;;;;;;;524346;28;1618;-82
2022/06/03 02:54:47;;;;;;;1.63;1.50;;;;;;;;;;524155;28;1497;-83
2022/06/03 02:55:29;;;;;;;2.42;1.50;;;;;;;;;;521996;28;881;-82
2022/06/03 02:55:47;;;;;;;1.88;1.30;;;;;;;;;;520285;28;1225;-82
2022/06/03 02:56:37;;;;;;;1.42;1.27;;;;;;;;;;518193;28;1663;-82
2022/06/03 02:57:17;;;;;;;2.03;1.50;;;;;;;;;;520674;28;1541;-82
2022/06/03 02:57:50;;;;;;;1.90;1.50;;;;;;;;;;520290;28;1422;-83
2022/06/03 02:58:18;;;;;;;2.70;1.60;;;;;;;;;;520339;28;1599;-83
2022/06/03 02:58:45;;;;;;;1.83;1.42;;;;;;;;;;520244;28;1463;-81
2022/06/03 02:59:12;;;;;;;2.78;1.58;;;;;;;;;;521742;28;1538;-80
2022/06/03 02:59:49;;;;;;;1.70;1.48;;;;;;;;;;523089;28;1462;-80
2022/06/03 03:00:34;;;;;;;1.40;1.30;;;;;;;;;;522342;28;1088;-82
2022/06/03 03:01:17;;;;;;;1.90;1.50;;;;;;;;;;523991;28;1276;-83
2022/06/03 03:01:42;;;;;;;1.63;1.50;;;;;;;;;;524195;28;921;-80
2022/06/03 03:02:09;;;;;;;2.05;1.50;;;;;;;;;;522864;28;1250;-80
2022/06/03 03:03:00;;;;;;;2.60;1.67;;;;;;;;;;520382;28;961;-82
2022/06/03 03:03:34;;;;;;;2.00;1.50;;;;;;;;;;512044;29;1132;-82
2022/06/03 03:04:08;;;;;;;2.05;1.58;;;;;;;;;;512467;28;1696;-82
2022/06/03 03:04:41;;;;;;;2.40;1.50;;;;;;;;;;517966;28;1436;-82
2022/06/03 03:05:14;;;;;;;2.47;1.50;;;;;;;;;;522058;28;1590;-82
2022/06/03 03:06:18;;;;;;;3.05;1.60;;;;;;;;;;520264;28;1627;-83
2022/06/03 03:06:58;;;;;;;1.98;1.60;;;;;;;;;;522160;28;1405;-82
2022/06/03 03:07:35;;;;;;;1.88;1.58;;;;;;;;;;522763;28;1527;-82
2022/06/03 03:07:59;;;;;;;1.95;1.70;;;;;;;;;;524064;28;1819;-82
2022/06/03 03:08:18;;;;;;;1.98;1.60;;;;;;;;;;522077;28;1618;-82
2022/06/03 03:09:28;;;;;;;2.97;1.70;;;;;;;;;;522262;28;948;-82
2022/06/03 03:10:09;;;;;;;2.72;1.60;;;;;;;;;;517017;28;1656;-82
2022/06/03 03:10:52;;;;;;;1.65;1.52;;;;;;;;;;520133;28;1071;-82
2022/06/03 03:11:41;;;;;;;1.70;1.60;;;;;;;;;;517844;28;1699;-82
2022/06/03 03:12:07;;;;;;;2.50;1.60;;;;;;;;;;517622;28;1467;-82
2022/06/03 03:12:53;;;;;;;2.47;1.40;;;;;;;;;;518166;28;969;-83
2022/06/03 03:13:29;;;;;;;3.25;1.70;;;;;;;;;;524364;28;953;-83
2022/06/03 03:14:06;;;;;;;3.20;1.70;;;;;;;;;;524210;28;1666;-83
2022/06/03 03:15:19;;;;;;;2.03;1.50;;;;;;;;;;522556;28;1382;-83
2022/06/03 03:16:16;;;;;;;1.70;1.60;;;;;;;;;;515518;28;930;-83
2022/06/03 03:17:01;;;;;;;2.22;1.50;;;;;;;;;;513504;28;1506;-82
2022/06/03 03:17:29;;;;;;;1.67;1.58;;;;;;;;;;513893;28;1962;-82
2022/06/03 03:18:06;;;;;;;2.78;1.80;;;;;;;;;;513913;28;965;-82
2022/06/03 03:18:52;;;;;;;2.72;1.50;;;;;;;;;;513919;28;1370;-82
2022/06/03 03:19:14;;;;;;;1.80;1.70;;;;;;;;;;514074;28;952;-82
2022/06/03 03:19:53;;;;;;;1.80;1.70;;;;;;;;;;513616;28;1290;-82
2022/06/03 03:20:18;;;;;;;1.90;1.50;;;;;;;;;;514010;28;1367;-82
2022/06/03 03:20:51;;;;;;;2.25;1.50;;;;;;;;;;515947;28;1480;-79
2022/06/03 03:21:21;;;;;;;1.70;1.60;;;;;;;;;;513747;28;1570;-81
2022/06/03 03:22:08;;;;;;;1.70;1.60;;;;;;;;;;517302;28;1594;-81
2022/06/03 03:23:00;;;;;;;1.90;1.48;;;;;;;;;;522069;28;1567;-81
2022/06/03 03:23:19;;;;;;;2.00;1.60;;;;;;;;;;517951;28;1356;-81
2022/06/03 03:24:15;;;;;;;1.75;1.58;;;;;;;;;;517831;28;1526;-81
2022/06/03 03:24:43;;;;;;;2.05;1.52;;;;;;;;;;517031;28;1418;-81
2022/06/03 03:25:01;;;;;;;2.15;1.50;;;;;;;;;;517816;28;913;-81
2022/06/03 03:25:45;;;;;;;1.98;1.50;;;;;;;;;;519873;28;885;-81
2022/06/03 03:26:28;;;;;;;2.10;1.70;;;;;;;;;;519830;28;1114;-81
2022/06/03 03:27:13;;;;;;;1.58;1.48;;;;;;;;;;523623;28;1337;-81
2022/06/03 03:27:46;;;;;;;3.30;1.60;;;;;;;;;;518106;28;1134;-81
2022/06/03 03:28:29;;;;;;;3.28;1.70;;;;;;;;;;522228;28;1670;-81
2022/06/03 03:28:44;;;;;;;1.80;1.60;;;;;;;;;;520804;28;1358;-81
2022/06/03 03:29:04;;;;;;;1.73;1.60;;;;;;;;;;522209;28;1071;-81
2022/06/03 03:30:24;;;;;;;2.50;1.60;;;;;;;;;;519808;28;1505;-81
2022/06/03 03:30:48;;;;;;;3.00;1.50;;;;;;;;;;510343;29;1683;-81
2022/06/03 03:31:44;;;;;;;1.70;1.60;;;;;;;;;;511332;29;1387;-81
2022/06/03 03:32:08;;;;;;;1.70;1.60;;;;;;;;;;514133;28;934;-81
2022/06/03 03:32:45;;;;;;;1.95;1.50;;;;;;;;;;512513;28;1564;-81
2022/06/03 03:33:18;;;;;;;1.60;1.50;;;;;;;;;;517492;28;1024;-81
2022/06/03 03:34:05;;;;;;;1.80;1.70;;;;;;;;;;520136;28;933;-81
2022/06/03 03:34:54;;;;;;;2.00;1.40;;;;;;;;;;520768;28;1370;-81
2022/06/03 03:35:12;;;;;;;1.88;1.42;;;;;;;;;;521866;28;857;-81
2022/06/03 03:35:43;;;;;;;2.25;1.48;;;;;;;;;;520317;28;1384;-81
2022/06/03 03:36:07;;;;;;;2.83;1.70;;;;;;;;;;518843;28;1431;-81
2022/06/03 03:36:43;;;;;;;2.30;1.50;;;;;;;;;;517933;28;988;-81
2022/06/03 03:37:02;;;;;;;2.47;1.70;;;;;;;;;;518484;28;1385;-81
2022/06/03 03:37:42;;;;;;;2.70;1.60;;;;;;;;;;522171;28;1965;-81
2022/06/03 03:38:34;;;;;;;1.83;1.55;;;;;;;;;;521697;28;1543;-81
2022/06/03 03:39:28;;;;;;;2.53;1.70;;;;;;;;;;520403;28;1351;-81
2022/06/03 03:40:01;;;;;;;2.22;1.55;;;;;;;;;;518492;28;1257;-81